Time;durP1;ratioP1;P1;durP2;ratioP2;P2;SDS_P1;SDS_P2;PMS_P1;PMS_P2;Temp;Humidity;BMP_temperature;BMP_pressure;BME280_temperature;BME280_humidity;BME280_pressure;Samples;Min_cycle;Max_cycle;Signal;HPM_P1;HPM_P2
2023/01/20 00:01:29;;;;;;;7.90;3.30;;;;;;;13.29;72.34;96204.19;4990721;28;20801;-78
2023/01/20 00:03:57;;;;;;;6.50;2.93;;;;;;;13.15;72.61;96206.13;4991050;28;20186;-79
2023/01/20 00:06:28;;;;;;;6.57;2.87;;;;;;;13.18;73.71;96211.09;4992346;28;20186;-79
2023/01/20 00:08:59;;;;;;;6.13;3.10;;;;;;;13.00;74.43;96202.78;4990724;28;20193;-76
2023/01/20 00:11:27;;;;;;;9.27;3.23;;;;;;;13.03;74.88;96215.53;4991247;28;20749;-77
2023/01/20 00:13:56;;;;;;;9.53;3.40;;;;;;;12.98;74.71;96215.03;4990755;28;20766;-76
2023/01/20 00:16:23;;;;;;;11.77;2.77;;;;;;;13.00;74.45;96213.16;4991785;28;20186;-73
2023/01/20 00:18:51;;;;;;;8.73;3.63;;;;;;;13.10;74.48;96209.03;4991554;28;20333;-75
2023/01/20 00:21:18;;;;;;;9.60;3.30;;;;;;;13.03;74.02;96199.94;4989558;28;20182;-75
2023/01/20 00:23:46;;;;;;;10.50;3.20;;;;;;;13.17;73.65;96215.44;4991923;28;20193;-80
2023/01/20 00:26:18;;;;;;;14.90;3.63;;;;;;;13.22;73.98;96218.56;4990244;28;20281;-76
2023/01/20 00:28:46;;;;;;;6.37;2.73;;;;;;;13.21;73.36;96227.28;4991659;28;20214;-80
2023/01/20 00:31:16;;;;;;;5.40;3.40;;;;;;;13.21;73.16;96231.69;4989252;28;20215;-78
2023/01/20 00:33:45;;;;;;;6.50;3.00;;;;;;;13.14;73.20;96256.44;4991235;28;20218;-72
2023/01/20 00:36:13;;;;;;;8.03;3.10;;;;;;;13.08;73.17;96236.91;4991536;28;20685;-74
2023/01/20 00:38:40;;;;;;;10.93;3.47;;;;;;;13.15;73.01;96227.72;4990156;28;20729;-75
2023/01/20 00:41:08;;;;;;;9.37;3.30;;;;;;;13.17;73.28;96228.44;4991452;28;20186;-73
2023/01/20 00:43:36;;;;;;;8.20;3.00;;;;;;;13.14;73.51;96244.28;4990054;28;20236;-73
2023/01/20 00:46:04;;;;;;;4.17;2.60;;;;;;;13.12;73.94;96243.53;4991886;28;20536;-73
2023/01/20 00:48:32;;;;;;;8.63;3.50;;;;;;;13.05;73.88;96245.72;5021205;28;20711;-72
2023/01/20 00:50:59;;;;;;;7.27;3.47;;;;;;;13.05;73.97;96247.50;4989687;28;20188;-74
2023/01/20 00:53:26;;;;;;;11.60;3.93;;;;;;;13.11;73.85;96235.84;4991034;28;20256;-73
2023/01/20 00:55:53;;;;;;;7.87;3.23;;;;;;;13.09;74.09;96251.53;4988698;28;20239;-74
2023/01/20 00:58:20;;;;;;;9.07;3.70;;;;;;;13.07;73.59;96243.00;4989923;28;20191;-79
2023/01/20 01:00:48;;;;;;;9.50;3.67;;;;;;;13.06;73.43;96234.38;4989667;28;20744;-76
2023/01/20 01:03:16;;;;;;;12.20;3.37;;;;;;;13.11;72.89;96236.66;4990968;28;20582;-78
2023/01/20 01:05:44;;;;;;;11.60;3.70;;;;;;;13.03;73.71;96244.97;4989375;28;20195;-79
2023/01/20 01:08:12;;;;;;;7.37;3.70;;;;;;;13.12;73.49;96251.34;4989775;28;20643;-78
2023/01/20 01:10:39;;;;;;;8.87;3.60;;;;;;;13.12;72.47;96227.94;4990174;28;20737;-78
2023/01/20 01:13:07;;;;;;;11.43;3.90;;;;;;;13.12;72.45;96240.09;4989936;28;20612;-77
2023/01/20 01:15:35;;;;;;;7.07;3.43;;;;;;;13.15;72.47;96226.91;4990823;28;20198;-80
2023/01/20 01:18:02;;;;;;;12.97;4.27;;;;;;;13.10;72.67;96216.81;4989057;28;20218;-78
2023/01/20 01:20:30;;;;;;;9.17;3.80;;;;;;;13.17;72.70;96225.03;4990840;28;20271;-75
2023/01/20 01:22:57;;;;;;;9.57;3.77;;;;;;;13.18;72.43;96231.88;4989176;28;20195;-78
2023/01/20 01:25:24;;;;;;;8.70;4.00;;;;;;;13.10;72.96;96210.78;4990616;28;20618;-78
2023/01/20 01:27:51;;;;;;;9.00;3.67;;;;;;;12.79;72.51;96181.69;4990076;28;20194;-80
2023/01/20 01:30:18;;;;;;;6.63;3.47;;;;;;;13.06;72.30;96218.78;4988421;28;20201;-81
2023/01/20 01:32:46;;;;;;;7.43;3.90;;;;;;;13.09;72.32;96222.94;4990663;28;20189;-78
2023/01/20 01:35:13;;;;;;;10.47;4.90;;;;;;;13.08;71.88;96213.50;4988974;28;20244;-74
2023/01/20 01:37:40;;;;;;;15.13;4.73;;;;;;;13.20;71.71;96225.66;4989204;28;20248;-75
2023/01/20 01:40:08;;;;;;;9.90;4.30;;;;;;;13.16;72.29;96241.56;4987296;28;20214;-77
2023/01/20 01:42:35;;;;;;;10.03;4.40;;;;;;;13.20;71.29;96256.84;4990418;28;20226;-77
2023/01/20 01:45:11;;;;;;;9.87;4.17;;;;;;;13.23;71.36;96232.41;4989310;28;20662;-78
2023/01/20 01:47:44;;;;;;;9.13;3.67;;;;;;;13.18;71.51;96209.31;4989370;28;20628;-73
2023/01/20 01:50:24;;;;;;;7.87;4.13;;;;;;;13.19;71.66;96203.16;4989010;28;20225;-76
2023/01/20 01:52:53;;;;;;;6.73;3.57;;;;;;;13.18;71.85;96205.88;4987362;28;20185;-76
2023/01/20 01:55:24;;;;;;;12.43;3.93;;;;;;;13.15;71.77;96206.13;4988985;28;20227;-73
2023/01/20 01:57:52;;;;;;;10.27;4.00;;;;;;;13.11;71.70;96189.06;4987463;28;20203;-75
2023/01/20 02:00:19;;;;;;;15.03;5.23;;;;;;;13.15;72.09;96180.13;4988409;28;20818;-80
2023/01/20 02:02:46;;;;;;;9.20;4.77;;;;;;;13.11;71.51;96181.28;4989707;28;20198;-78
2023/01/20 02:05:15;;;;;;;10.67;3.90;;;;;;;13.07;71.38;96162.44;4988575;28;20241;-79
2023/01/20 02:07:45;;;;;;;9.50;4.00;;;;;;;13.17;71.74;96175.66;4989858;28;20282;-79
2023/01/20 02:10:13;;;;;;;6.17;4.00;;;;;;;13.15;71.73;96169.72;4988260;28;20610;-79
2023/01/20 02:12:46;;;;;;;7.40;4.03;;;;;;;13.19;71.09;96165.97;5021004;28;20276;-79
2023/01/20 02:15:13;;;;;;;7.57;4.03;;;;;;;13.14;70.85;96157.66;4988476;28;20218;-79
2023/01/20 02:18:11;;;;;;;10.20;3.93;;;;;;;13.23;71.48;96170.00;4988628;28;20663;-78
2023/01/20 02:20:53;;;;;;;6.97;3.97;;;;;;;13.19;71.24;96189.38;4989519;28;20953;-79
2023/01/20 02:23:44;;;;;;;7.17;4.30;;;;;;;13.18;71.85;96187.69;4987850;28;20192;-76
2023/01/20 02:26:40;;;;;;;8.43;4.33;;;;;;;13.19;71.84;96181.56;4988002;28;20202;-74
2023/01/20 02:29:46;;;;;;;10.77;5.43;;;;;;;13.14;71.31;96181.03;4989612;28;20199;-77
2023/01/20 02:32:28;;;;;;;9.57;4.40;;;;;;;13.06;71.76;96166.78;4987645;28;20220;-74
2023/01/20 02:35:01;;;;;;;9.37;4.63;;;;;;;13.02;72.38;96170.50;4987680;28;20252;-77
2023/01/20 02:37:45;;;;;;;8.07;4.73;;;;;;;13.10;71.83;96179.59;4987946;28;20660;-75
2023/01/20 02:40:15;;;;;;;8.47;4.40;;;;;;;13.08;72.06;96175.31;4987673;28;20697;-72
2023/01/20 02:42:55;;;;;;;6.87;4.50;;;;;;;13.06;71.76;96155.59;4989567;28;21052;-72
2023/01/20 02:45:31;;;;;;;10.40;5.17;;;;;;;13.10;71.29;96156.19;4986136;28;20217;-71
2023/01/20 02:48:08;;;;;;;12.73;4.50;;;;;;;13.05;71.63;96148.72;4988661;28;20189;-76
2023/01/20 02:50:46;;;;;;;6.57;4.60;;;;;;;13.14;71.43;96160.25;4989056;28;20658;-72
2023/01/20 02:53:14;;;;;;;9.40;5.03;;;;;;;13.13;70.73;96136.00;4986033;28;20206;-72
2023/01/20 02:55:45;;;;;;;12.27;5.30;;;;;;;13.04;70.85;96127.09;4987577;28;20673;-72
2023/01/20 02:58:29;;;;;;;9.13;5.20;;;;;;;13.10;70.58;96125.00;4987350;28;20575;-73
2023/01/20 03:01:06;;;;;;;8.40;5.03;;;;;;;13.03;71.46;96122.81;4988386;28;20797;-73
2023/01/20 03:03:37;;;;;;;10.47;5.30;;;;;;;13.06;70.92;96135.59;4988923;28;20184;-73
2023/01/20 03:06:10;;;;;;;7.93;4.70;;;;;;;13.01;71.07;96148.06;4985340;28;20745;-72
2023/01/20 03:08:39;;;;;;;9.87;4.77;;;;;;;13.01;71.38;96129.03;4988688;28;20194;-72
2023/01/20 03:11:08;;;;;;;10.37;4.93;;;;;;;12.90;71.61;96129.78;4987242;28;20198;-74
2023/01/20 03:13:47;;;;;;;8.20;4.10;;;;;;;12.94;71.26;96141.63;4988717;28;20288;-71
2023/01/20 03:16:18;;;;;;;11.07;4.67;;;;;;;12.92;71.10;96121.91;4988164;28;20202;-71
2023/01/20 03:18:45;;;;;;;7.17;4.37;;;;;;;12.92;71.22;96114.09;4987071;28;20292;-70
2023/01/20 03:21:12;;;;;;;9.70;5.67;;;;;;;12.97;70.90;96115.44;4988549;28;20229;-71
2023/01/20 03:23:45;;;;;;;10.37;5.13;;;;;;;12.91;70.84;96100.28;4987002;28;20219;-72
2023/01/20 03:26:14;;;;;;;13.23;4.93;;;;;;;13.08;70.33;96145.91;4988637;28;20557;-73
2023/01/20 03:28:43;;;;;;;8.27;4.40;;;;;;;13.00;69.97;96149.00;4987212;28;20549;-74
2023/01/20 03:32:00;;;;;;;8.87;5.33;;;;;;;13.02;69.95;96097.75;4987449;28;20221;-73
2023/01/20 03:34:30;;;;;;;8.90;4.27;;;;;;;13.07;68.82;96103.50;4979952;28;20214;-80
2023/01/20 03:36:59;;;;;;;8.50;4.80;;;;;;;13.10;68.96;96099.84;4986811;28;20191;-73
2023/01/20 03:39:27;;;;;;;5.73;4.57;;;;;;;12.99;69.71;96105.75;4988210;28;20223;-73
2023/01/20 03:42:13;;;;;;;12.50;5.43;;;;;;;12.96;69.26;96116.38;4987397;28;20253;-73
2023/01/20 03:44:57;;;;;;;9.57;5.03;;;;;;;12.95;69.31;96119.06;4986947;28;20194;-79
2023/01/20 03:47:49;;;;;;;11.57;5.70;;;;;;;12.94;70.33;96113.03;4988332;28;20282;-73
2023/01/20 03:50:41;;;;;;;9.30;4.37;;;;;;;12.87;70.25;96104.03;4986718;28;20195;-73
2023/01/20 03:53:17;;;;;;;12.17;5.37;;;;;;;12.81;71.14;96093.22;4987331;28;20191;-74
2023/01/20 03:55:51;;;;;;;9.07;5.37;;;;;;;12.86;71.18;96104.13;4986684;28;20191;-74
2023/01/20 03:58:24;;;;;;;11.67;5.60;;;;;;;12.86;71.62;96097.16;4985355;28;20281;-74
2023/01/20 04:00:52;;;;;;;7.60;4.87;;;;;;;12.79;71.18;96100.28;4988175;28;20224;-73
2023/01/20 04:03:23;;;;;;;9.00;5.47;;;;;;;12.86;71.06;96110.16;4986887;28;20201;-74
2023/01/20 04:05:50;;;;;;;9.90;5.23;;;;;;;12.80;70.37;96088.94;4986736;28;20224;-79
2023/01/20 04:08:21;;;;;;;8.93;5.03;;;;;;;12.84;70.02;96091.22;4987863;28;20221;-76
2023/01/20 04:10:50;;;;;;;14.63;5.43;;;;;;;12.88;70.56;96107.47;4986696;28;20281;-77
2023/01/20 04:13:17;;;;;;;11.67;5.57;;;;;;;12.91;69.94;96105.47;4988094;28;20198;-79
2023/01/20 04:15:45;;;;;;;8.00;4.80;;;;;;;12.79;71.09;96121.09;4989529;28;20201;-71
2023/01/20 04:18:17;;;;;;;9.87;5.00;;;;;;;12.73;70.84;96098.13;5007447;28;20240;-73
2023/01/20 04:20:52;;;;;;;12.63;6.60;;;;;;;12.78;71.71;96115.03;5004974;28;20227;-71
2023/01/20 04:23:22;;;;;;;9.77;5.27;;;;;;;12.74;73.18;96129.19;5005946;28;20266;-71
2023/01/20 04:25:49;;;;;;;11.13;5.93;;;;;;;12.75;73.62;96115.28;5006092;28;20193;-71
2023/01/20 04:28:16;;;;;;;13.13;6.00;;;;;;;12.39;73.75;96081.41;5005856;28;20361;-76
2023/01/20 04:30:43;;;;;;;11.20;5.20;;;;;;;12.65;73.25;96114.22;5002559;28;20215;-73
2023/01/20 04:33:10;;;;;;;12.33;5.90;;;;;;;12.69;73.09;96113.09;4995797;28;20258;-71
2023/01/20 04:35:37;;;;;;;10.50;6.03;;;;;;;12.76;71.96;96111.72;4995169;28;20663;-73
2023/01/20 04:38:04;;;;;;;15.03;5.87;;;;;;;12.81;71.62;96116.59;4993172;28;20292;-72
2023/01/20 04:40:31;;;;;;;13.67;5.70;;;;;;;12.81;71.38;96085.44;5006803;28;20249;-73
2023/01/20 04:42:58;;;;;;;9.93;5.60;;;;;;;12.80;71.50;96081.16;5010759;28;20228;-72
2023/01/20 04:45:25;;;;;;;13.37;5.07;;;;;;;12.84;71.25;96106.81;5009324;28;20194;-73
2023/01/20 04:47:52;;;;;;;10.53;5.77;;;;;;;12.79;72.12;96110.69;5010753;28;20185;-78
2023/01/20 04:50:19;;;;;;;10.73;5.87;;;;;;;12.78;72.51;96114.22;5009078;28;20193;-73
2023/01/20 04:52:46;;;;;;;14.40;6.53;;;;;;;12.65;73.12;96093.44;5008560;28;20204;-75
2023/01/20 04:55:13;;;;;;;11.80;5.97;;;;;;;12.65;73.59;96103.84;5009281;28;20248;-78
2023/01/20 04:57:41;;;;;;;10.33;5.50;;;;;;;12.68;71.97;96116.63;5009443;28;20262;-77
2023/01/20 05:00:09;;;;;;;12.83;6.17;;;;;;;12.71;72.40;96097.41;5010295;28;20274;-75
2023/01/20 05:02:36;;;;;;;14.27;6.97;;;;;;;12.78;71.31;96107.25;5008288;28;20276;-73
2023/01/20 05:05:04;;;;;;;13.63;6.77;;;;;;;12.80;70.96;96088.94;5010590;28;20199;-73
2023/01/20 05:07:31;;;;;;;12.03;6.53;;;;;;;12.88;70.47;96089.28;5008873;28;20279;-73
2023/01/20 05:09:57;;;;;;;19.20;8.33;;;;;;;12.95;70.46;96096.53;5010636;28;20205;-73
2023/01/20 05:12:25;;;;;;;20.30;7.20;;;;;;;12.99;69.34;96102.34;5007160;28;20217;-82
2023/01/20 05:14:52;;;;;;;12.47;6.77;;;;;;;13.01;69.54;96101.28;5003710;28;20286;-86
2023/01/20 05:17:22;;;;;;;10.77;6.37;;;;;;;12.84;71.16;96103.38;4993921;28;20616;-72
2023/01/20 05:19:49;;;;;;;12.33;6.43;;;;;;;12.85;71.18;96108.50;5008890;28;20326;-74
2023/01/20 05:22:16;;;;;;;11.17;6.73;;;;;;;12.63;73.15;96105.69;4993507;28;20691;-73
2023/01/20 05:24:43;;;;;;;14.03;6.70;;;;;;;12.52;73.59;96099.59;4989234;28;20278;-77
2023/01/20 05:27:10;;;;;;;14.70;7.27;;;;;;;12.60;73.50;96103.34;4991179;28;20199;-84
2023/01/20 05:29:37;;;;;;;14.17;8.23;;;;;;;12.57;74.06;96103.53;4989134;28;20463;-82
2023/01/20 05:32:04;;;;;;;15.33;8.70;;;;;;;12.50;74.33;96096.28;4990640;28;20191;-73
2023/01/20 05:34:31;;;;;;;12.30;7.93;;;;;;;12.36;76.12;96093.78;4989689;28;20189;-74
2023/01/20 05:36:58;;;;;;;12.77;6.83;;;;;;;12.32;75.74;96087.97;4989787;28;20663;-82
2023/01/20 05:39:25;;;;;;;15.63;7.10;;;;;;;12.37;74.48;96079.84;4990383;28;20288;-76
2023/01/20 05:41:52;;;;;;;13.87;6.27;;;;;;;12.51;74.65;96090.16;4987573;28;20187;-72
2023/01/20 05:44:19;;;;;;;15.83;7.00;;;;;;;12.60;74.34;96079.97;4990328;28;20190;-80
2023/01/20 05:46:45;;;;;;;13.27;7.10;;;;;;;12.73;73.95;96083.38;4987489;28;20192;-76
2023/01/20 05:49:13;;;;;;;16.23;7.40;;;;;;;12.75;73.47;96089.28;4990195;28;20224;-84
2023/01/20 05:51:40;;;;;;;18.00;7.37;;;;;;;12.69;73.53;96063.75;4988869;28;20246;-73
2023/01/20 05:54:07;;;;;;;15.43;7.17;;;;;;;12.70;74.16;96062.78;4987455;28;20612;-74
2023/01/20 05:56:34;;;;;;;16.40;7.90;;;;;;;12.68;74.01;96067.25;4990027;28;20202;-79
2023/01/20 05:59:01;;;;;;;16.53;7.90;;;;;;;12.77;73.62;96100.41;4987315;28;20645;-71
2023/01/20 06:01:28;;;;;;;11.77;5.37;;;;;;;12.70;74.51;96099.16;5021169;28;20217;-78
2023/01/20 06:03:55;;;;;;;11.97;7.00;;;;;;;12.76;74.88;96085.75;4988098;28;20193;-73
2023/01/20 06:06:22;;;;;;;12.00;6.23;;;;;;;12.63;75.89;96129.09;5021231;28;20309;-74
2023/01/20 06:08:51;;;;;;;10.30;6.00;;;;;;;12.61;75.90;96110.16;5003059;28;20234;-84
2023/01/20 06:11:19;;;;;;;12.60;6.87;;;;;;;12.55;76.75;96110.59;4988361;28;20272;-84
2023/01/20 06:13:47;;;;;;;8.97;5.73;;;;;;;12.51;76.75;96116.94;4989574;28;20209;-84
2023/01/20 06:16:16;;;;;;;18.27;6.90;;;;;;;12.51;76.83;96111.75;4970904;28;20206;-85
2023/01/20 06:18:43;;;;;;;18.37;6.67;;;;;;;12.54;77.22;96108.94;4989750;28;20236;-77
2023/01/20 06:21:11;;;;;;;17.23;7.87;;;;;;;12.49;77.73;96118.81;4988145;28;20608;-79
2023/01/20 06:23:38;;;;;;;18.13;6.23;;;;;;;12.46;77.94;96123.38;4989621;28;20222;-85
2023/01/20 06:26:11;;;;;;;11.53;6.20;;;;;;;12.51;77.42;96124.72;4988113;28;20214;-84
2023/01/20 06:28:38;;;;;;;10.97;6.30;;;;;;;12.42;77.97;96138.34;4987985;28;20186;-87
2023/01/20 06:31:08;;;;;;;9.40;5.87;;;;;;;12.41;77.52;96109.88;4987974;28;20195;-84
2023/01/20 06:33:36;;;;;;;11.07;6.07;;;;;;;12.27;77.47;96093.47;4990165;28;20224;-84
2023/01/20 06:36:04;;;;;;;12.83;6.57;;;;;;;12.42;77.60;96101.16;4987902;28;20221;-84
2023/01/20 06:38:32;;;;;;;11.90;5.27;;;;;;;12.40;77.80;96098.69;4986335;28;20191;-81
2023/01/20 06:41:05;;;;;;;9.70;5.10;;;;;;;12.38;77.97;96095.34;4989234;28;20700;-83
2023/01/20 06:43:34;;;;;;;11.43;4.80;;;;;;;12.41;77.52;96086.50;4987774;28;20194;-72
2023/01/20 06:46:02;;;;;;;9.70;4.90;;;;;;;12.48;77.73;96093.78;4988661;28;20195;-76
2023/01/20 06:48:30;;;;;;;9.57;5.43;;;;;;;12.55;76.90;96084.63;4988751;28;20194;-76
2023/01/20 06:51:06;;;;;;;12.43;6.50;;;;;;;12.52;77.23;96071.03;4987510;28;20300;-73
2023/01/20 06:53:33;;;;;;;11.67;5.43;;;;;;;12.64;76.39;96076.22;4989077;28;20304;-72
2023/01/20 06:56:01;;;;;;;11.97;5.93;;;;;;;12.53;77.17;96083.09;4987479;28;20206;-77
2023/01/20 06:58:31;;;;;;;6.63;4.83;;;;;;;12.38;76.34;96065.94;4988337;28;20195;-73
2023/01/20 07:01:05;;;;;;;15.87;7.43;;;;;;;12.78;75.88;96099.47;4986234;28;20243;-72
2023/01/20 07:03:32;;;;;;;12.73;6.00;;;;;;;12.67;75.48;96089.00;5019837;28;20185;-75
2023/01/20 07:06:01;;;;;;;16.40;6.50;;;;;;;12.60;76.41;96126.72;4987652;28;20218;-74
2023/01/20 07:08:29;;;;;;;13.53;7.40;;;;;;;12.68;76.22;96098.44;4969647;28;20206;-75
2023/01/20 07:10:57;;;;;;;16.63;7.30;;;;;;;12.57;76.73;96106.13;4971738;28;20191;-76
2023/01/20 07:13:23;;;;;;;10.57;6.47;;;;;;;12.57;77.22;96084.53;4987068;28;20193;-75
2023/01/20 07:15:51;;;;;;;11.77;6.20;;;;;;;12.69;76.72;96089.72;4987314;28;20599;-77
2023/01/20 07:18:18;;;;;;;20.67;9.73;;;;;;;12.59;76.79;96073.09;4986412;28;20568;-72
2023/01/20 07:20:51;;;;;;;12.00;8.00;;;;;;;12.61;77.33;96079.00;4987957;28;20249;-83
2023/01/20 07:23:18;;;;;;;11.43;7.30;;;;;;;12.56;77.94;96104.47;4987078;28;20210;-78
2023/01/20 07:25:46;;;;;;;11.27;5.80;;;;;;;12.41;78.02;96063.13;4987171;28;20670;-84
2023/01/20 07:28:14;;;;;;;13.73;6.27;;;;;;;12.55;78.61;96063.84;4988887;28;20225;-82
2023/01/20 07:30:42;;;;;;;11.43;6.60;;;;;;;12.48;78.46;96049.66;4970553;28;20293;-78
2023/01/20 07:33:09;;;;;;;10.30;6.83;;;;;;;12.39;78.52;96032.09;4987594;28;20239;-78
2023/01/20 07:35:36;;;;;;;8.33;6.13;;;;;;;12.42;78.03;96060.44;4987442;28;20194;-82
2023/01/20 07:38:03;;;;;;;9.90;5.77;;;;;;;12.39;78.87;96046.81;4988428;28;20724;-80
2023/01/20 07:40:32;;;;;;;11.67;6.57;;;;;;;12.37;79.10;96048.69;4970393;28;20233;-81
2023/01/20 07:43:02;;;;;;;11.57;6.27;;;;;;;12.32;79.02;96049.03;4985832;28;20556;-75
2023/01/20 07:45:29;;;;;;;9.87;6.00;;;;;;;12.34;79.29;96035.94;5003485;28;20205;-77
2023/01/20 07:47:56;;;;;;;13.17;5.83;;;;;;;12.24;79.38;96009.81;4986614;28;20694;-77
2023/01/20 07:50:26;;;;;;;12.37;5.37;;;;;;;12.23;79.41;96021.09;4988500;28;20187;-84
2023/01/20 07:52:54;;;;;;;13.30;6.57;;;;;;;12.39;79.06;96032.09;4969621;28;20197;-80
2023/01/20 07:55:21;;;;;;;12.77;5.80;;;;;;;12.25;79.45;96011.44;4987320;28;20197;-79
2023/01/20 07:57:50;;;;;;;7.87;5.50;;;;;;;12.36;79.90;96055.69;4986237;28;20198;-73
2023/01/20 08:00:18;;;;;;;10.20;6.47;;;;;;;12.50;79.04;96052.13;4985189;28;20227;-79
2023/01/20 08:02:45;;;;;;;10.60;6.27;;;;;;;12.53;79.13;96057.13;4987988;28;20234;-71
2023/01/20 08:05:19;;;;;;;14.73;7.37;;;;;;;12.51;78.85;96065.00;4986789;28;20276;-79
2023/01/20 08:07:50;;;;;;;15.43;6.97;;;;;;;12.56;78.65;96042.16;5002430;28;20710;-73
2023/01/20 08:10:17;;;;;;;9.97;5.63;;;;;;;12.74;78.50;96064.25;4985056;28;20201;-73
2023/01/20 08:12:44;;;;;;;12.70;6.43;;;;;;;12.64;78.48;96045.03;4985868;28;20195;-73
2023/01/20 08:15:12;;;;;;;10.00;6.30;;;;;;;12.82;77.78;96056.75;4986458;28;20197;-81
2023/01/20 08:17:39;;;;;;;12.97;6.63;;;;;;;12.75;78.04;96057.28;4990033;28;20231;-75
2023/01/20 08:20:08;;;;;;;6.30;4.03;;;;;;;12.70;77.98;96051.56;4992116;28;20283;-74
2023/01/20 08:22:35;;;;;;;7.83;5.47;;;;;;;12.64;78.30;96039.00;4990422;28;20182;-75
2023/01/20 08:25:03;;;;;;;9.27;5.70;;;;;;;12.78;78.68;96044.91;4959475;28;20197;-73
2023/01/20 08:27:30;;;;;;;8.93;6.00;;;;;;;12.70;79.24;96055.00;4993339;28;20198;-72
2023/01/20 08:29:57;;;;;;;12.77;6.57;;;;;;;12.54;79.72;96025.00;4995338;28;20225;-73
2023/01/20 08:32:24;;;;;;;9.40;6.27;;;;;;;12.60;79.40;96015.03;4996166;28;20668;-71
2023/01/20 08:34:51;;;;;;;6.87;5.40;;;;;;;12.54;78.81;95993.84;4992860;28;20675;-75
2023/01/20 08:37:19;;;;;;;8.67;5.03;;;;;;;12.72;78.99;96014.16;4997929;28;20244;-75
2023/01/20 08:39:46;;;;;;;11.83;5.50;;;;;;;12.72;79.06;96002.94;4992619;28;20268;-74
2023/01/20 08:42:13;;;;;;;11.60;5.30;;;;;;;12.76;78.73;95997.41;4979792;28;20629;-72
2023/01/20 08:44:41;;;;;;;15.03;7.97;;;;;;;12.77;79.03;95993.91;4995891;28;20196;-84
2023/01/20 08:47:08;;;;;;;14.57;4.93;;;;;;;12.81;78.62;95978.91;4991525;28;20191;-72
2023/01/20 08:49:35;;;;;;;8.73;5.67;;;;;;;12.65;79.32;95971.34;4991364;28;20636;-75
2023/01/20 08:52:02;;;;;;;12.83;6.40;;;;;;;12.79;78.94;95971.22;4990976;28;20240;-73
2023/01/20 08:54:33;;;;;;;7.77;5.27;;;;;;;12.53;79.37;95968.81;4992395;28;20244;-72
2023/01/20 08:57:00;;;;;;;8.30;5.77;;;;;;;12.40;79.40;95937.69;4988629;28;20759;-72
2023/01/20 08:59:27;;;;;;;8.97;5.57;;;;;;;12.35;80.71;95944.13;4974026;28;20744;-73
2023/01/20 09:01:54;;;;;;;10.53;5.47;;;;;;;12.53;80.66;95954.06;4987878;28;20254;-73
2023/01/20 09:04:21;;;;;;;8.80;4.80;;;;;;;12.47;80.62;95949.28;4990121;28;20197;-76
2023/01/20 09:06:49;;;;;;;7.50;5.10;;;;;;;12.61;80.41;95932.75;4988782;28;20242;-73
2023/01/20 09:09:19;;;;;;;7.83;5.00;;;;;;;12.53;80.87;95928.09;4989685;28;20223;-73
2023/01/20 09:11:50;;;;;;;9.03;4.77;;;;;;;12.46;82.49;95950.25;4991214;28;20301;-73
2023/01/20 09:14:22;;;;;;;6.53;4.53;;;;;;;12.35;82.97;95931.97;4988580;28;20674;-73
2023/01/20 09:16:49;;;;;;;11.87;5.60;;;;;;;12.29;83.67;95932.41;4990635;28;20196;-76
2023/01/20 09:19:16;;;;;;;8.80;6.67;;;;;;;12.20;84.76;95926.09;5003663;28;20229;-80
2023/01/20 09:21:43;;;;;;;9.77;5.97;;;;;;;12.05;85.31;95936.72;4990172;28;20228;-78
2023/01/20 09:24:10;;;;;;;14.03;9.23;;;;;;;12.08;85.88;95946.88;4989603;28;20651;-73
2023/01/20 09:26:37;;;;;;;9.67;8.13;;;;;;;11.98;85.38;95945.84;4988512;28;20193;-73
2023/01/20 09:29:09;;;;;;;11.53;7.87;;;;;;;12.06;86.65;95957.38;4972090;28;20212;-75
2023/01/20 09:31:42;;;;;;;15.60;7.23;;;;;;;12.12;87.18;95966.50;4987205;28;20307;-72
2023/01/20 09:34:17;;;;;;;10.70;6.63;;;;;;;12.12;87.56;95953.50;4989947;28;20191;-72
2023/01/20 09:36:49;;;;;;;9.20;6.07;;;;;;;12.05;87.31;95962.69;4988792;28;20258;-76
2023/01/20 09:45:23;;;;;;;10.07;4.70;;;;;;;11.67;89.06;95970.44;4988597;28;20192;-74
2023/01/20 09:47:57;;;;;;;9.73;6.37;;;;;;;11.66;90.66;96001.66;4989865;28;20206;-72
2023/01/20 09:53:46;;;;;;;10.67;6.57;;;;;;;11.73;91.49;96023.66;4970720;28;20202;-75
2023/01/20 09:56:17;;;;;;;5.23;3.77;;;;;;;11.45;85.54;96033.25;4990111;28;20642;-72
2023/01/20 09:58:51;;;;;;;7.07;3.50;;;;;;;11.48;84.01;96034.78;4987596;28;20577;-72
2023/01/20 10:01:43;;;;;;;11.13;3.20;;;;;;;11.34;84.00;96033.09;4988823;28;20248;-74
2023/01/20 10:04:24;;;;;;;4.27;2.70;;;;;;;11.07;86.05;96018.50;4988418;28;20272;-75
2023/01/20 10:07:02;;;;;;;6.07;4.47;;;;;;;11.01;85.62;96034.44;4988040;28;20240;-73
2023/01/20 10:09:36;;;;;;;4.30;3.30;;;;;;;10.83;85.64;96020.06;4989407;28;20189;-73
2023/01/20 10:12:12;;;;;;;5.33;3.20;;;;;;;10.82;85.39;95992.50;4989255;28;20281;-83
2023/01/20 10:14:45;;;;;;;10.33;7.50;;;;;;;10.64;86.19;95984.13;4988126;28;20572;-72
2023/01/20 10:17:29;;;;;;;7.40;4.20;;;;;;;10.13;88.30;95966.66;4989536;28;20196;-73
2023/01/20 10:20:11;;;;;;;4.43;3.20;;;;;;;10.07;89.10;95967.00;4988173;28;20199;-82
2023/01/20 10:22:51;;;;;;;3.40;2.67;;;;;;;9.88;88.86;95944.00;4987501;28;20298;-81
2023/01/20 10:25:59;;;;;;;6.23;3.00;;;;;;;9.66;90.32;95938.47;4989322;28;20192;-78
2023/01/20 10:28:27;;;;;;;6.63;3.80;;;;;;;9.54;92.56;95921.91;4950921;28;20290;-78
2023/01/20 10:30:57;;;;;;;9.07;4.87;;;;;;;9.58;91.44;95918.22;4988916;28;20207;-75
2023/01/20 10:33:29;;;;;;;6.13;3.63;;;;;;;9.43;90.75;95900.22;4988460;28;20573;-79
2023/01/20 10:35:58;;;;;;;6.73;3.33;;;;;;;9.39;90.98;95888.41;4988478;28;20331;-78
2023/01/20 10:38:38;;;;;;;6.93;3.60;;;;;;;9.34;90.96;95888.69;4989369;28;20287;-79
2023/01/20 10:41:22;;;;;;;2.27;1.70;;;;;;;8.97;90.37;95861.63;4985851;28;20224;-74
2023/01/20 10:43:49;;;;;;;4.57;3.40;;;;;;;9.14;92.05;95828.78;4987684;28;20250;-79
2023/01/20 10:46:44;;;;;;;9.50;4.30;;;;;;;9.12;91.06;95815.97;4988000;28;20219;-76
2023/01/20 10:49:20;;;;;;;6.13;3.53;;;;;;;9.32;90.24;95813.03;4986132;28;20188;-74
2023/01/20 10:52:05;;;;;;;10.53;5.37;;;;;;;9.85;90.40;95812.31;4988827;28;20199;-72
2023/01/20 10:54:50;;;;;;;4.77;3.53;;;;;;;10.10;88.58;95814.22;4986148;28;20277;-73
2023/01/20 10:57:17;;;;;;;6.77;3.83;;;;;;;10.14;88.33;95841.56;4986965;28;20184;-73
2023/01/20 10:59:48;;;;;;;6.70;3.60;;;;;;;10.47;87.83;95847.16;5019799;28;20791;-73
2023/01/20 11:02:23;;;;;;;17.43;9.87;;;;;;;10.88;87.80;95847.09;5018351;28;20262;-73
2023/01/20 11:05:15;;;;;;;16.13;9.43;;;;;;;11.10;87.96;95848.16;4988891;28;20256;-81
2023/01/20 11:07:44;;;;;;;15.67;9.67;;;;;;;11.27;88.12;95850.41;4985361;28;20211;-71
2023/01/20 11:10:24;;;;;;;11.30;7.80;;;;;;;11.41;88.76;95852.09;4987952;28;20682;-72
2023/01/20 11:12:55;;;;;;;10.67;7.27;;;;;;;11.34;89.66;95869.81;4988261;28;20235;-79
2023/01/20 11:15:50;;;;;;;10.37;7.80;;;;;;;11.49;90.43;95875.72;4986566;28;20202;-73
2023/01/20 11:18:21;;;;;;;15.00;8.60;;;;;;;11.26;90.79;95884.22;4986935;28;20245;-76
2023/01/20 11:20:52;;;;;;;11.93;8.33;;;;;;;11.39;89.39;95878.13;4986845;28;20185;-81
2023/01/20 11:23:43;;;;;;;12.13;8.10;;;;;;;11.40;89.52;95877.19;4986778;28;20197;-84
2023/01/20 11:26:30;;;;;;;12.67;7.07;;;;;;;11.24;91.79;95884.31;4977082;28;20256;-81
2023/01/20 11:28:59;;;;;;;7.93;5.00;;;;;;;11.13;90.17;95875.59;4986459;28;20596;-79
2023/01/20 11:31:52;;;;;;;2.70;2.37;;;;;;;10.94;87.41;95878.56;4986688;28;20356;-77
2023/01/20 11:34:29;;;;;;;2.53;2.33;;;;;;;10.91;86.65;95885.72;4987682;28;20196;-74
2023/01/20 11:37:05;;;;;;;2.80;2.30;;;;;;;10.94;86.61;95894.09;4986460;28;20208;-76
2023/01/20 11:39:43;;;;;;;4.57;2.43;;;;;;;10.71;87.52;95883.59;4988213;28;20217;-82
2023/01/20 11:42:24;;;;;;;3.17;2.80;;;;;;;10.76;87.26;95887.53;4984862;28;20277;-74
2023/01/20 11:44:57;;;;;;;6.37;4.37;;;;;;;10.55;87.30;95871.63;4987867;28;20240;-79
2023/01/20 11:47:44;;;;;;;6.47;4.70;;;;;;;10.62;87.50;95852.19;5000124;28;20196;-77
2023/01/20 11:50:49;;;;;;;10.27;6.03;;;;;;;10.40;90.32;95827.81;4986255;28;20215;-80
2023/01/20 11:53:18;;;;;;;8.47;6.40;;;;;;;10.20;91.48;95813.53;4947040;29;20293;-79
2023/01/20 11:55:49;;;;;;;6.63;4.50;;;;;;;10.11;91.23;95793.44;4980583;28;20201;-75
2023/01/20 11:58:19;;;;;;;6.27;5.60;;;;;;;10.18;91.64;95799.88;5018663;28;20219;-74